createdAt,value
2019-05-03T00:02:07.923Z,86577.13
2019-05-03T00:04:34.632Z,86583.01
2019-05-03T00:07:02.698Z,86574.34
2019-05-03T00:09:29.715Z,86573.70
2019-05-03T00:11:56.441Z,86571.52
2019-05-03T00:14:23.350Z,86570.82
2019-05-03T00:16:52.097Z,86569.41
2019-05-03T00:19:18.622Z,86564.73
2019-05-03T00:21:45.419Z,86565.89
2019-05-03T00:24:12.153Z,86562.11
2019-05-03T00:26:38.972Z,86561.35
2019-05-03T00:29:05.707Z,86561.55
2019-05-03T00:31:32.449Z,86557.65
2019-05-03T00:33:59.230Z,86550.52
2019-05-03T00:36:25.931Z,86550.55
2019-05-03T00:38:52.775Z,86558.05
2019-05-03T00:41:21.468Z,86553.89
2019-05-03T00:43:48.075Z,86548.84
2019-05-03T00:46:14.856Z,86551.11
2019-05-03T00:48:43.029Z,86550.56
2019-05-03T00:51:11.731Z,86546.61
2019-05-03T00:53:38.524Z,86545.89
2019-05-03T00:56:05.285Z,86541.75
2019-05-03T00:58:32.070Z,86539.27
2019-05-03T01:00:58.815Z,86537.73
2019-05-03T01:03:25.564Z,86540.03
2019-05-03T01:05:52.956Z,86542.80
2019-05-03T01:08:21.889Z,86532.63
2019-05-03T01:10:48.484Z,86541.30
2019-05-03T01:13:15.320Z,86533.84
2019-05-03T01:15:42.390Z,86537.80
2019-05-03T01:18:09.210Z,86535.93
2019-05-03T01:20:36.165Z,86533.89
2019-05-03T01:23:02.899Z,86526.39
2019-05-03T01:25:33.081Z,86530.89
2019-05-03T01:27:58.214Z,86529.98
2019-05-03T01:30:24.946Z,86534.30
2019-05-03T01:32:52.370Z,86535.27
2019-05-03T01:35:19.257Z,86536.77
2019-05-03T01:37:46.057Z,86536.95
2019-05-03T01:40:12.857Z,86540.14
2019-05-03T01:42:39.645Z,86538.46
2019-05-03T01:45:06.548Z,86539.91
2019-05-03T01:47:33.277Z,86538.88
2019-05-03T01:50:00.044Z,86538.86
2019-05-03T01:52:26.795Z,86539.81
2019-05-03T01:54:53.605Z,86534.72
2019-05-03T01:57:21.945Z,86542.05
2019-05-03T01:59:48.915Z,86539.03
2019-05-03T02:02:15.648Z,86539.23
2019-05-03T02:04:42.459Z,86542.81
2019-05-03T02:07:09.243Z,86546.39
2019-05-03T02:09:36.048Z,86541.89
2019-05-03T02:12:03.297Z,86544.17
2019-05-03T02:14:31.719Z,86543.25
2019-05-03T02:16:58.538Z,86542.36
2019-05-03T02:19:25.355Z,86541.77
2019-05-03T02:21:52.442Z,86543.84
2019-05-03T02:24:19.560Z,86542.16
2019-05-03T02:26:46.288Z,86543.51
2019-05-03T02:29:13.081Z,86539.92
2019-05-03T02:31:39.791Z,86536.94
2019-05-03T02:34:06.575Z,86535.06
2019-05-03T02:36:33.875Z,86531.67
2019-05-03T02:39:02.899Z,86534.66
2019-05-03T02:41:29.493Z,86533.91
2019-05-03T02:43:56.277Z,86529.20
2019-05-03T02:46:25.185Z,86532.40
2019-05-03T02:48:51.545Z,86527.14
2019-05-03T02:51:18.290Z,86524.70
2019-05-03T02:53:45.801Z,86527.37
2019-05-03T02:56:20.949Z,86532.63
2019-05-03T02:58:41.184Z,86531.28
2019-05-03T03:01:08.000Z,86529.41
2019-05-03T03:03:36.232Z,86526.41
2019-05-03T03:06:06.739Z,86527.03
2019-05-03T03:08:36.701Z,86531.93
2019-05-03T03:11:07.371Z,86529.30
2019-05-03T03:13:37.389Z,86529.50
2019-05-03T03:16:09.198Z,86529.16
2019-05-03T03:18:39.012Z,86533.50
2019-05-03T03:21:09.326Z,86534.84
2019-05-03T03:23:47.310Z,86537.86
2019-05-03T03:26:33.338Z,86539.34
2019-05-03T03:28:55.698Z,86530.36
2019-05-03T03:31:29.414Z,86536.00
2019-05-03T03:34:01.621Z,86536.05
2019-05-03T03:36:46.194Z,86541.33
2019-05-03T03:39:00.336Z,86540.97
2019-05-03T03:41:29.548Z,86540.97
2019-05-03T03:43:57.395Z,86545.27
2019-05-03T03:46:26.929Z,86543.59
2019-05-03T03:48:56.039Z,86545.67
2019-05-03T03:51:26.139Z,86550.16
2019-05-03T03:53:55.454Z,86552.61
2019-05-03T03:56:25.552Z,86552.79
2019-05-03T03:58:52.155Z,86554.45
2019-05-03T04:01:19.378Z,86556.36
2019-05-03T04:03:46.196Z,86556.92
2019-05-03T04:06:15.372Z,86561.80
2019-05-03T04:08:45.114Z,86566.14
2019-05-03T04:11:11.096Z,86565.76
2019-05-03T04:13:37.849Z,86570.63
2019-05-03T04:16:05.508Z,86570.44
2019-05-03T04:18:32.551Z,86571.95
2019-05-03T04:20:59.551Z,86575.67
2019-05-03T04:23:27.007Z,86577.92
2019-05-03T04:25:56.683Z,86584.30
2019-05-03T04:28:25.372Z,86585.81
2019-05-03T04:30:51.182Z,86593.30
2019-05-03T04:33:17.981Z,86594.44
2019-05-03T04:35:46.486Z,86596.12
2019-05-03T04:38:16.043Z,86601.55
2019-05-03T04:40:41.988Z,86598.75
2019-05-03T04:43:08.725Z,86598.58
2019-05-03T04:45:36.671Z,86605.53
2019-05-03T04:48:05.936Z,86607.20
2019-05-03T04:50:36.363Z,86603.83
2019-05-03T04:53:05.513Z,86602.52
2019-05-03T04:55:31.071Z,86608.52
2019-05-03T04:57:57.816Z,86608.52
2019-05-03T05:00:25.589Z,86602.53
2019-05-03T05:02:55.597Z,86608.91
2019-05-03T05:05:22.375Z,86616.39
2019-05-03T05:07:49.169Z,86612.08
2019-05-03T05:10:15.900Z,86616.39
2019-05-03T05:12:42.619Z,86614.35
2019-05-03T05:15:09.595Z,86620.14
2019-05-03T05:17:36.355Z,86623.52
2019-05-03T05:20:05.466Z,86620.53
2019-05-03T05:22:32.182Z,86623.91
2019-05-03T05:24:58.919Z,86624.28
2019-05-03T05:27:25.811Z,86617.70
2019-05-03T05:29:52.560Z,86621.45
2019-05-03T05:32:19.315Z,86619.20
2019-05-03T05:34:46.261Z,86620.88
2019-05-03T05:37:14.540Z,86619.75
2019-05-03T05:39:41.361Z,86622.21
2019-05-03T05:42:08.218Z,86615.81
2019-05-03T05:44:35.275Z,86612.44
2019-05-03T05:47:02.057Z,86611.70
2019-05-03T05:49:28.976Z,86615.63
2019-05-03T05:51:55.682Z,86614.31
2019-05-03T05:54:24.532Z,86612.79
2019-05-03T05:56:51.080Z,86614.50
2019-05-03T05:59:17.803Z,86616.17
2019-05-03T06:01:45.676Z,86617.84
2019-05-03T06:04:12.424Z,86619.52
2019-05-03T06:06:39.389Z,86622.16
2019-05-03T06:09:06.745Z,86620.11
2019-05-03T06:11:34.744Z,86620.47
2019-05-03T06:14:01.672Z,86626.28
2019-05-03T06:16:28.385Z,86620.66
2019-05-03T06:18:55.236Z,86623.11
2019-05-03T06:21:21.983Z,86619.72
2019-05-03T06:23:48.725Z,86617.83
2019-05-03T06:26:15.694Z,86622.14
2019-05-03T06:28:42.374Z,86613.51
2019-05-03T06:31:09.091Z,86613.68
2019-05-03T06:33:35.881Z,86611.81
2019-05-03T06:36:04.841Z,86608.60
2019-05-03T06:38:31.664Z,86613.84
2019-05-03T06:40:58.392Z,86607.47
2019-05-03T06:43:25.145Z,86607.08
2019-05-03T06:45:51.956Z,86609.87
2019-05-03T06:48:22.415Z,86612.12
2019-05-03T06:50:47.229Z,86607.79
2019-05-03T06:53:15.527Z,86604.41
2019-05-03T06:55:45.479Z,86604.94
2019-05-03T06:58:10.993Z,86599.48
2019-05-03T07:00:37.859Z,86607.55
2019-05-03T07:03:04.978Z,86611.08
2019-05-03T07:05:31.930Z,86605.45
2019-05-03T07:07:58.730Z,86601.84
2019-05-03T07:10:25.457Z,86602.40
2019-05-03T07:12:52.739Z,86597.89
2019-05-03T07:15:20.805Z,86594.64
2019-05-03T07:17:47.513Z,86593.49
2019-05-03T07:20:14.797Z,86584.61
2019-05-03T07:22:41.737Z,86593.02
2019-05-03T07:25:08.552Z,86586.08
2019-05-03T07:27:35.265Z,86586.20
2019-05-03T07:30:05.151Z,86585.80
2019-05-03T07:32:31.871Z,86583.16
2019-05-03T07:34:58.609Z,86585.42
2019-05-03T07:37:25.469Z,86582.04
2019-05-03T07:39:52.237Z,86585.03
2019-05-03T07:42:19.000Z,86583.11
2019-05-03T07:44:45.735Z,86584.98
2019-05-03T07:47:12.483Z,86583.43
2019-05-03T07:49:39.964Z,86586.77
2019-05-03T07:52:06.836Z,86581.40
2019-05-03T07:54:34.872Z,86578.37
2019-05-03T07:57:01.880Z,86584.48
2019-05-03T07:59:28.629Z,86578.80
2019-05-03T08:01:55.482Z,86575.22
2019-05-03T08:04:22.231Z,86575.58
2019-05-03T08:06:48.964Z,86576.84
2019-05-03T08:09:15.762Z,86572.20
2019-05-03T08:11:44.310Z,86573.16
2019-05-03T08:14:11.032Z,86571.78
2019-05-03T08:16:37.796Z,86573.70
2019-05-03T08:19:05.000Z,86565.57
2019-05-03T08:21:31.995Z,86564.29
2019-05-03T08:23:58.745Z,86561.75
2019-05-03T08:26:25.905Z,86567.85
2019-05-03T08:28:54.483Z,86562.24
2019-05-03T08:31:23.890Z,86562.92
2019-05-03T08:33:49.897Z,86557.70
2019-05-03T08:36:16.618Z,86554.29
2019-05-03T08:38:45.151Z,86564.03
2019-05-03T08:41:11.993Z,86563.47
2019-05-03T08:43:38.761Z,86563.87
2019-05-03T08:46:05.529Z,86560.53
2019-05-03T08:48:32.258Z,86560.70
2019-05-03T08:50:59.070Z,86563.90
2019-05-03T08:53:25.861Z,86560.55
2019-05-03T08:55:52.595Z,86567.41
2019-05-03T08:58:19.430Z,86563.69
2019-05-03T09:00:46.156Z,86571.55
2019-05-03T09:03:14.416Z,86567.91
2019-05-03T09:05:41.421Z,86563.28
2019-05-03T09:08:08.165Z,86559.22
2019-05-03T09:10:35.286Z,86563.52
2019-05-03T09:13:05.533Z,86557.34
2019-05-03T09:15:30.609Z,86554.38
2019-05-03T09:17:57.397Z,86552.77
2019-05-03T09:20:25.082Z,86551.09
2019-05-03T09:22:52.017Z,86552.16
2019-05-03T09:25:18.753Z,86549.23
2019-05-03T09:27:45.502Z,86548.56
2019-05-03T09:30:14.484Z,86548.16
2019-05-03T09:32:41.555Z,86548.16
2019-05-03T09:35:27.190Z,86552.23
2019-05-03T09:37:41.086Z,86544.95
2019-05-03T09:40:07.867Z,86542.77
2019-05-03T09:42:35.237Z,86538.69
2019-05-03T09:45:04.924Z,86542.02
2019-05-03T09:47:31.742Z,86538.73
2019-05-03T09:49:58.639Z,86536.38
2019-05-03T09:52:25.399Z,86536.08
2019-05-03T09:54:54.642Z,86539.54
2019-05-03T09:57:20.914Z,86534.89
2019-05-03T09:59:56.503Z,86530.02
2019-05-03T10:02:16.194Z,86532.57
2019-05-03T10:04:44.587Z,86535.89
2019-05-03T10:07:11.713Z,86534.30
2019-05-03T10:09:38.466Z,86537.84
2019-05-03T10:12:05.553Z,86533.75
2019-05-03T10:14:32.430Z,86535.36
2019-05-03T10:16:59.156Z,86534.27
2019-05-03T10:19:36.627Z,86529.08
2019-05-03T10:21:54.471Z,86534.63
2019-05-03T10:24:21.290Z,86531.70
2019-05-03T10:26:48.025Z,86529.54
2019-05-03T10:29:15.287Z,86527.33
2019-05-03T10:31:42.029Z,86530.08
2019-05-03T10:34:08.794Z,86518.77
2019-05-03T10:36:35.708Z,86524.11
2019-05-03T10:39:04.818Z,86515.08
2019-05-03T10:41:31.695Z,86512.83
2019-05-03T10:43:58.610Z,86520.53
2019-05-03T10:46:25.594Z,86513.58
2019-05-03T10:48:52.341Z,86515.55
2019-05-03T10:51:19.179Z,86514.56
2019-05-03T10:53:45.951Z,86516.94
2019-05-03T10:56:13.925Z,86523.97
2019-05-03T10:58:41.306Z,86521.31
2019-05-03T11:01:08.029Z,86528.06
2019-05-03T11:03:34.810Z,86526.09
2019-05-03T11:06:01.695Z,86523.58
2019-05-03T11:08:28.445Z,86531.75
2019-05-03T11:10:55.171Z,86532.32
2019-05-03T11:13:22.031Z,86532.22
2019-05-03T11:15:49.062Z,86533.20
2019-05-03T11:18:15.933Z,86528.34
2019-05-03T11:20:42.882Z,86537.73
2019-05-03T11:23:09.618Z,86542.67
2019-05-03T11:25:36.478Z,86548.80
2019-05-03T11:28:04.885Z,86543.39
2019-05-03T11:30:31.807Z,86545.52
2019-05-03T11:32:58.693Z,86542.20
2019-05-03T11:35:25.416Z,86537.05
2019-05-03T11:37:52.179Z,86538.77
2019-05-03T11:40:19.090Z,86528.00
2019-05-03T11:42:45.862Z,86542.80
2019-05-03T11:45:15.160Z,86546.33
2019-05-03T11:47:41.762Z,86544.25
2019-05-03T11:50:08.704Z,86534.94
2019-05-03T11:52:35.730Z,86531.27
2019-05-03T11:55:11.427Z,86535.49
2019-05-03T11:57:35.708Z,86535.77
2019-05-03T12:00:06.220Z,86534.23
2019-05-03T12:02:33.108Z,86541.95
2019-05-03T12:04:59.920Z,86537.37
2019-05-03T12:07:38.616Z,86541.38
2019-05-03T12:09:55.215Z,86551.86
2019-05-03T12:12:21.955Z,86550.56
2019-05-03T12:14:48.815Z,86542.80
2019-05-03T12:17:20.849Z,86541.40
2019-05-03T12:19:46.897Z,86538.20
2019-05-03T12:22:14.074Z,86540.41
2019-05-03T12:24:42.569Z,86546.03
2019-05-03T12:27:10.070Z,86550.64
2019-05-03T12:29:37.023Z,86551.08
2019-05-03T12:32:05.278Z,86543.91
2019-05-03T12:34:32.179Z,86532.30
2019-05-03T12:36:58.970Z,86534.91
2019-05-03T12:39:30.044Z,86537.77
2019-05-03T12:41:55.012Z,86534.30
2019-05-03T12:44:21.838Z,86533.09
2019-05-03T12:46:48.569Z,86535.52
2019-05-03T12:49:15.600Z,86535.92
2019-05-03T12:51:42.271Z,86533.20
2019-05-03T12:54:09.035Z,86536.11
2019-05-03T12:56:35.960Z,86532.64
2019-05-03T12:59:02.751Z,86527.81
2019-05-03T13:01:40.861Z,86521.16
2019-05-03T13:04:00.147Z,86515.75
2019-05-03T13:06:26.882Z,86515.34
2019-05-03T13:08:54.828Z,86517.80
2019-05-03T13:11:21.784Z,86509.64
2019-05-03T13:13:48.522Z,86514.66
2019-05-03T13:16:15.405Z,86509.80
2019-05-03T13:18:42.532Z,86507.94
2019-05-03T13:21:09.269Z,86510.17
2019-05-03T13:23:36.331Z,86510.29
2019-05-03T13:26:05.656Z,86506.50
2019-05-03T13:28:32.076Z,86506.32
2019-05-03T13:30:58.799Z,86508.97
2019-05-03T13:33:25.597Z,86518.92
2019-05-03T13:35:52.406Z,86507.19
2019-05-03T13:38:19.220Z,86511.80
2019-05-03T13:40:46.384Z,86512.13
2019-05-03T13:43:15.047Z,86510.47
2019-05-03T13:45:41.777Z,86513.91
2019-05-03T13:48:08.627Z,86507.26
2019-05-03T13:50:35.439Z,86514.09
2019-05-03T13:53:02.323Z,86521.09
2019-05-03T13:55:29.087Z,86515.19
2019-05-03T13:57:55.811Z,86513.11
2019-05-03T14:00:24.531Z,86516.43
2019-05-03T14:02:51.301Z,86512.23
2019-05-03T14:05:18.030Z,86512.76
2019-05-03T14:07:44.828Z,86510.30
2019-05-03T14:10:12.276Z,86511.84
2019-05-03T14:12:39.261Z,86517.06
2019-05-03T14:15:06.757Z,86515.52
2019-05-03T14:17:33.472Z,86515.86
2019-05-03T14:20:00.240Z,86512.47
2019-05-03T14:22:26.995Z,86512.95
2019-05-03T14:24:53.738Z,86513.45
2019-05-03T14:27:21.630Z,86513.55
2019-05-03T14:29:48.356Z,86521.80
2019-05-03T14:32:25.720Z,86519.67
2019-05-03T14:34:45.382Z,86521.81
2019-05-03T14:37:12.251Z,86524.20
2019-05-03T14:39:39.010Z,86524.45
2019-05-03T14:42:05.781Z,86521.41
2019-05-03T14:44:32.671Z,86522.00
2019-05-03T14:46:59.403Z,86527.06
2019-05-03T14:49:26.176Z,86526.43
2019-05-03T14:52:14.618Z,86522.84
2019-05-03T14:54:41.264Z,86525.89
2019-05-03T14:57:07.995Z,86524.63
2019-05-03T14:59:34.786Z,86529.89
2019-05-03T15:02:01.556Z,86536.56
2019-05-03T15:04:28.250Z,86538.63
2019-05-03T15:06:57.729Z,86537.62
2019-05-03T15:09:25.142Z,86539.34
2019-05-03T15:11:51.974Z,86535.20
2019-05-03T15:14:18.790Z,86540.47
2019-05-03T15:16:45.754Z,86542.92
2019-05-03T15:19:14.648Z,86545.34
2019-05-03T15:21:41.187Z,86543.81
2019-05-03T15:24:07.907Z,86542.30
2019-05-03T15:26:35.639Z,86539.86
2019-05-03T15:29:04.722Z,86542.17
2019-05-03T15:31:31.134Z,86542.36
2019-05-03T15:33:57.848Z,86544.45
2019-05-03T15:36:24.748Z,86540.72
2019-05-03T15:38:51.485Z,86544.13
2019-05-03T15:41:18.294Z,86544.53
2019-05-03T15:43:45.462Z,86548.21
2019-05-03T15:46:14.597Z,86546.00
2019-05-03T15:48:42.692Z,86539.81
2019-05-03T15:51:09.478Z,86539.97
2019-05-03T15:53:36.298Z,86540.94
2019-05-03T15:56:05.239Z,86538.30
2019-05-03T15:58:31.692Z,86541.95
2019-05-03T16:00:58.407Z,86537.25
2019-05-03T16:03:25.392Z,86532.75
2019-05-03T16:05:52.356Z,86535.16
2019-05-03T16:08:19.101Z,86534.56
2019-05-03T16:10:46.125Z,86539.83
2019-05-03T16:13:14.303Z,86539.41
2019-05-03T16:15:41.310Z,86543.50
2019-05-03T16:18:08.054Z,86536.20
2019-05-03T16:20:39.146Z,86536.89
2019-05-03T16:23:04.970Z,86537.11
2019-05-03T16:25:32.004Z,86539.34
2019-05-03T16:27:58.890Z,86535.92
2019-05-03T16:30:25.679Z,86537.86
2019-05-03T16:32:52.453Z,86540.30
2019-05-03T16:35:19.238Z,86536.75
2019-05-03T16:37:45.981Z,86530.11
2019-05-03T16:40:14.181Z,86525.80
2019-05-03T16:42:41.787Z,86529.25
2019-05-03T16:45:08.533Z,86530.59
2019-05-03T16:47:35.526Z,86528.97
2019-05-03T16:50:06.439Z,86529.88
2019-05-03T16:52:34.871Z,86530.04
2019-05-03T16:55:03.411Z,86518.84
2019-05-03T16:57:30.283Z,86522.75
2019-05-03T16:59:57.025Z,86521.62
2019-05-03T17:02:26.776Z,86525.37
2019-05-03T17:04:55.659Z,86518.42
2019-05-03T17:07:22.095Z,86526.48
2019-05-03T17:09:48.835Z,86521.97
2019-05-03T17:12:15.709Z,86525.17
2019-05-03T17:14:42.424Z,86530.28
2019-05-03T17:17:09.140Z,86527.66
2019-05-03T17:19:36.555Z,86532.18
2019-05-03T17:22:05.473Z,86531.81
2019-05-03T17:24:32.206Z,86528.98
2019-05-03T17:26:59.050Z,86528.42
2019-05-03T17:29:25.779Z,86533.90
2019-05-03T17:31:52.513Z,86536.39
2019-05-03T17:34:19.401Z,86539.42
2019-05-03T17:36:46.152Z,86541.88
2019-05-03T17:39:12.874Z,86543.02
2019-05-03T17:41:39.700Z,86538.31
2019-05-03T17:44:06.757Z,86538.13
2019-05-03T17:46:34.735Z,86537.62
2019-05-03T17:49:01.945Z,86537.46
2019-05-03T17:51:29.093Z,86542.75
2019-05-03T17:53:55.810Z,86543.50
2019-05-03T17:56:24.385Z,86547.86
2019-05-03T17:58:51.169Z,86548.08
2019-05-03T18:01:17.900Z,86543.41
2019-05-03T18:03:44.945Z,86538.34
2019-05-03T18:06:11.665Z,86543.45
2019-05-03T18:08:38.404Z,86539.91
2019-05-03T18:11:05.249Z,86548.37
2019-05-03T18:13:32.750Z,86547.66
2019-05-03T18:15:59.588Z,86543.88
2019-05-03T18:18:26.427Z,86552.38
2019-05-03T18:20:53.165Z,86551.27
2019-05-03T18:23:19.910Z,86551.83
2019-05-03T18:25:46.805Z,86556.58
2019-05-03T18:28:14.805Z,86559.97
2019-05-03T18:30:41.979Z,86556.47
2019-05-03T18:33:08.743Z,86557.22
2019-05-03T18:35:35.489Z,86559.86
2019-05-03T18:38:02.389Z,86564.93
2019-05-03T18:40:32.353Z,86568.52
2019-05-03T18:42:59.381Z,86567.59
2019-05-03T18:45:26.138Z,86565.34
2019-05-03T18:47:54.454Z,86570.80
2019-05-03T18:50:34.957Z,86573.63
2019-05-03T18:52:51.264Z,86570.24
2019-05-03T18:55:18.115Z,86571.77
2019-05-03T18:57:44.832Z,86579.14
2019-05-03T19:00:12.573Z,86573.52
2019-05-03T19:02:39.439Z,86573.19
2019-05-03T19:05:06.471Z,86581.45
2019-05-03T19:07:34.728Z,86576.22
2019-05-03T19:10:02.633Z,86576.81
2019-05-03T19:12:29.374Z,86581.52
2019-05-03T19:14:56.119Z,86582.67
2019-05-03T19:17:24.758Z,86590.98
2019-05-03T19:19:51.494Z,86590.26
2019-05-03T19:22:18.261Z,86588.58
2019-05-03T19:24:45.100Z,86594.42
2019-05-03T19:27:11.832Z,86590.12
2019-05-03T19:29:38.627Z,86596.69
2019-05-03T19:32:05.494Z,86596.86
2019-05-03T19:34:44.478Z,86592.19
2019-05-03T19:37:00.888Z,86594.42
2019-05-03T19:39:27.792Z,86589.19
2019-05-03T19:41:55.286Z,86592.20
2019-05-03T19:44:22.136Z,86597.10
2019-05-03T19:46:49.084Z,86592.03
2019-05-03T19:49:15.782Z,86586.97
2019-05-03T19:51:42.507Z,86592.81
2019-05-03T19:54:09.376Z,86601.81
2019-05-03T19:56:36.109Z,86594.87
2019-05-03T19:59:04.655Z,86601.11
2019-05-03T20:01:31.416Z,86599.63
2019-05-03T20:03:58.135Z,86606.92
2019-05-03T20:06:25.288Z,86601.83
2019-05-03T20:08:52.221Z,86604.46
2019-05-03T20:11:18.952Z,86604.66
2019-05-03T20:13:45.806Z,86603.56
2019-05-03T20:16:15.089Z,86603.73
2019-05-03T20:18:41.435Z,86600.76
2019-05-03T20:21:08.165Z,86602.44
2019-05-03T20:23:35.028Z,86600.37
2019-05-03T20:26:01.799Z,86599.81
2019-05-03T20:28:28.541Z,86601.67
2019-05-03T20:30:55.340Z,86607.88
2019-05-03T20:33:22.063Z,86602.27
2019-05-03T20:35:48.788Z,86604.33
2019-05-03T20:38:15.669Z,86605.44
2019-05-03T20:40:42.436Z,86605.27
2019-05-03T20:43:09.172Z,86602.28
2019-05-03T20:45:36.134Z,86601.70
2019-05-03T20:48:05.259Z,86605.28
2019-05-03T20:50:31.673Z,86601.90
2019-05-03T20:52:58.554Z,86600.42
2019-05-03T20:55:25.751Z,86598.72
2019-05-03T20:57:52.540Z,86599.47
2019-05-03T21:00:21.229Z,86598.34
2019-05-03T21:02:53.827Z,86596.83
2019-05-03T21:05:26.621Z,86597.42
2019-05-03T21:07:45.975Z,86596.66
2019-05-03T21:10:15.668Z,86597.42
2019-05-03T21:12:42.623Z,86594.98
2019-05-03T21:15:11.009Z,86595.91
2019-05-03T21:17:37.733Z,86596.30
2019-05-03T21:20:05.449Z,86590.86
2019-05-03T21:22:32.245Z,86596.28
2019-05-03T21:24:58.980Z,86597.06
2019-05-03T21:27:25.719Z,86599.69
2019-05-03T21:29:54.801Z,86596.11
2019-05-03T21:32:21.136Z,86586.16
2019-05-03T21:34:47.962Z,86591.80
2019-05-03T21:37:15.143Z,86593.67
2019-05-03T21:39:41.958Z,86589.36
2019-05-03T21:42:08.700Z,86585.81
2019-05-03T21:44:35.457Z,86588.61
2019-05-03T21:47:02.251Z,86588.80
2019-05-03T21:49:29.015Z,86591.05
2019-05-03T21:51:55.893Z,86595.56
2019-05-03T21:54:24.476Z,86595.00
2019-05-03T21:56:51.145Z,86598.57
2019-05-03T21:59:17.947Z,86594.63
2019-05-03T22:01:45.624Z,86593.30
2019-05-03T22:04:12.526Z,86594.45
2019-05-03T22:06:39.405Z,86598.58
2019-05-03T22:09:06.269Z,86592.18
2019-05-03T22:11:32.995Z,86596.70
2019-05-03T22:14:01.697Z,86599.33
2019-05-03T22:16:28.392Z,86593.52
2019-05-03T22:18:55.130Z,86595.20
2019-05-03T22:21:21.919Z,86590.14
2019-05-03T22:23:48.628Z,86586.56
2019-05-03T22:26:15.495Z,86591.08
2019-05-03T22:28:44.346Z,86587.33
2019-05-03T22:31:10.961Z,86586.37
2019-05-03T22:33:37.688Z,86580.95
2019-05-03T22:36:08.498Z,86584.51
2019-05-03T22:38:36.214Z,86582.06
2019-05-03T22:41:01.630Z,86579.81
2019-05-03T22:43:28.525Z,86579.84
2019-05-03T22:45:55.265Z,86580.41
2019-05-03T22:48:22.064Z,86582.27
2019-05-03T22:50:48.933Z,86580.41
2019-05-03T22:53:15.706Z,86578.15
2019-05-03T22:55:42.436Z,86571.03
2019-05-03T22:58:09.320Z,86569.33
2019-05-03T23:00:36.068Z,86570.25
2019-05-03T23:03:02.814Z,86571.56
2019-05-03T23:05:29.668Z,86573.27
2019-05-03T23:07:56.378Z,86568.77
2019-05-03T23:10:23.142Z,86563.13
2019-05-03T23:12:49.908Z,86562.94
2019-05-03T23:15:16.657Z,86560.89
2019-05-03T23:17:45.139Z,86554.13
2019-05-03T23:20:12.300Z,86560.33
2019-05-03T23:22:39.063Z,86556.77
2019-05-03T23:25:06.071Z,86555.09
2019-05-03T23:27:35.237Z,86551.33
2019-05-03T23:30:01.704Z,86551.52
2019-05-03T23:32:28.409Z,86550.40
2019-05-03T23:34:55.193Z,86545.31
2019-05-03T23:37:21.913Z,86539.34
2019-05-03T23:39:48.653Z,86536.33
2019-05-03T23:42:15.626Z,86535.95
2019-05-03T23:44:42.391Z,86537.83
2019-05-03T23:47:09.133Z,86531.45
2019-05-03T23:49:35.957Z,86530.72
2019-05-03T23:52:04.485Z,86531.84
2019-05-03T23:54:31.237Z,86534.66
2019-05-03T23:56:58.122Z,86522.83
2019-05-03T23:59:24.843Z,86524.34
